Swanville, Minnesota
Current Conditions -  °F | °C
As of 5:08 PM on Thursday 18 Dec 2014 (Local Time) from K14Y Reporting Station
Overcast Overcast  
Wind Chill: 11°   Ceiling: 7000
Heat Index: 19°   Visibility: 10mi
Dew Point: 12°   Wind: 6mph
Humidity: 74%   Direction: 120°ESE
Pressure: 30.22"   Gusts: NA
Location:  45.91°N, 94.64°W
Report Text: K14Y 182308Z AUTO 12005KT 10SM OVC070 M07/M11 A3022 RMK AO2
Loading
Personal Weather Stations






























Interactive Weather Map New forecast layout! Learn more

10-Day Weather Forecast

Advertisements
Track Severe Weather on mobile